LICCLIMJ

Guest
Details From LICC - Catania Fontanarossa
To LIMJ - Genova Sestri
Flight Number -
Tags decoded
Created
Modified
Stats Distance 531 nm / 983 km
Max Altitude 0 ft / 0 m
Waypoints 6
Social Downloads 0
Likes 0
Share VATSIM

Download

Looking for another format? Having issues loading an existing format? Contact us
Advertisement - Login to hide

Notes

Requested: LICC INDAX PEKOD PNZ ELB LIMJ

Route

LICC INDAX PEKOD PNZ ELB LIMJ

ID Type Via Altitude (ft/m) Position (lat/lon) Dist (leg/tot) Name
O LICC APT - 0 / 0 37.46678 / 15.06640 - / 0 nm Catania Fontanarossa
INDAX FIX - 0 / 0 37.49639 / 15.28917 10 / 10 nm
PEKOD FIX - 0 / 0 37.71778 / 15.46278 15 / 26 nm
PNZ NDB - 0 / 0 40.91111 / 12.95611 224 / 250 nm PONZA NDB
ELB NDB - 0 / 0 42.73250 / 10.39389 158 / 409 nm ELBA NDB
O LIMJ APT - 0 / 0 44.41196 / 8.84187 121 / 530 nm Genova Sestri

Altitude Profile

Advertisement - Login to hide

Weather


0- 5 10 15 20 25 30 35+ Temperature / °C

Clouds and Precipitation
Forecast for 2018-10-18 06:00 UTC. Updated 3 hours ago

Ground ~20,000 ft ~40,000 ft Winds

LICC

Details ICAO LICC (CTA)
Name Catania Fontanarossa
Region Italy
Timezone Europe/Rome (UTC+2.0)
Stats Elevation 39 ft / 12 m (AMSL)
Location 37.466800° 15.066500°
Runways 1
Magnetic Variation 3.297° E

METAR

LICC 180620Z 08019KT 9999 FEW020 SCT050 22/18 Q1012

Decode

TAF

TAF LICC 180500Z 1806/1906 08018KT 9999 FEW020 SCT040 TEMPO 1812/1816 SHRA TEMPO 1900/1906 TSRA

Decode

Departure Runways

ID Width Length Bearing (true/mag) Surface Threshold Overrun Markings Lighting
08 148 ft / 45 m 8,000 ft / 2,438 m 83.94° / 80.64° ASPHALT 0 ft / 0 m 0 ft / 0 m APP CENTERLINE EDGE THRESHOLD MALSF
26 148 ft / 45 m 8,000 ft / 2,438 m 263.96° / 260.66° ASPHALT 0 ft / 0 m 0 ft / 0 m APP CENTERLINE EDGE THRESHOLD MALSF

LIMJ

Details ICAO LIMJ (GOA)
Name Genova Cristoforo Colombo Airport
Region Italy
Timezone Unknown
Stats Elevation 13 ft / 4 m (AMSL)
Location 44.412000° 8.841800°
Runways 1
Magnetic Variation 2.483° E

METAR

LIMJ 180620Z 04007G19KT 010V130 7000 FEW025 19/12 Q1015

Decode

TAF

TAF LIMJ 180500Z 1806/1906 01010KT 9999 SCT050 BKN060

Decode

Destination Runways

ID Width Length Bearing (true/mag) Surface Threshold Overrun Markings Lighting
10 148 ft / 45 m 9,577 ft / 2,919 m 105.33° / 102.85° CONCRETE 0 ft / 0 m 0 ft / 0 m PREC-APP CENTERLINE EDGE THRESHOLD SALS REIL-OMNI
28 148 ft / 45 m 9,577 ft / 2,919 m 285.36° / 282.88° CONCRETE 522 ft / 159 m 0 ft / 0 m PREC-APP CENTERLINE EDGE THRESHOLD SALS REIL-OMNI

Approach Navaids

Runway Type Ident Frequency Range Bearing (true/mag) Slope Elevation
28 GS GSE 109.30 MHz 10 nm / 19 km 285.40° / 282.92 ° 3.17° 26 ft / 8 m (AMSL)
28 DME GSE 109.30 MHz 18 nm / 33 km - - 26 ft / 8 m (AMSL)
28 LOC-ILS GSE 109.30 MHz 18 nm / 33 km 285.40° / 282.92 ° - 9 ft / 3 m (AMSL)

Popular Alternatives